createdAt,value
2023-10-09T00:02:11.749Z,2.85
2023-10-09T00:04:44.068Z,2.97
2023-10-09T00:07:12.826Z,2.33
2023-10-09T00:09:59.102Z,3.60
2023-10-09T00:12:29.793Z,2.60
2023-10-09T00:14:57.683Z,2.35
2023-10-09T00:17:25.743Z,2.35
2023-10-09T00:19:53.701Z,2.25
2023-10-09T00:22:31.441Z,2.70
2023-10-09T00:25:12.375Z,3.20
2023-10-09T00:27:44.554Z,2.50
2023-10-09T00:30:16.973Z,2.80
2023-10-09T00:33:00.879Z,2.10
2023-10-09T00:35:38.940Z,2.67
2023-10-09T00:38:22.475Z,2.45
2023-10-09T00:40:59.050Z,3.30
2023-10-09T00:43:29.934Z,3.22
2023-10-09T00:46:11.571Z,3.08
2023-10-09T00:48:42.925Z,2.92
2023-10-09T00:51:19.948Z,2.67
2023-10-09T00:53:53.835Z,3.40
2023-10-09T00:56:30.693Z,2.55
2023-10-09T00:59:10.945Z,2.50
2023-10-09T01:01:42.563Z,2.80
2023-10-09T01:04:14.097Z,2.55
2023-10-09T01:06:46.350Z,2.75
2023-10-09T01:09:24.216Z,2.78
2023-10-09T01:12:03.542Z,3.25
2023-10-09T01:14:43.085Z,2.90
2023-10-09T01:17:12.345Z,3.17
2023-10-09T01:19:40.124Z,2.72
2023-10-09T01:22:17.388Z,2.10
2023-10-09T01:24:45.341Z,2.28
2023-10-09T01:27:18.865Z,3.03
2023-10-09T01:29:47.973Z,3.42
2023-10-09T01:32:19.815Z,2.83
2023-10-09T01:34:51.191Z,2.67
2023-10-09T01:37:21.248Z,3.63
2023-10-09T01:39:53.686Z,2.73
2023-10-09T01:42:45.498Z,2.85
2023-10-09T01:45:22.527Z,2.75
2023-10-09T01:47:53.460Z,2.85
2023-10-09T01:50:23.839Z,2.38
2023-10-09T01:52:52.971Z,2.80
2023-10-09T01:55:31.125Z,3.88
2023-10-09T01:58:07.856Z,2.73
2023-10-09T02:00:37.305Z,2.83
2023-10-09T02:03:07.700Z,2.63
2023-10-09T02:05:37.911Z,2.05
2023-10-09T02:08:07.106Z,2.63
2023-10-09T02:10:34.219Z,2.20
2023-10-09T02:13:14.912Z,3.17
2023-10-09T02:15:45.203Z,2.70
2023-10-09T02:18:27.165Z,2.85
2023-10-09T02:21:06.646Z,2.42
2023-10-09T02:23:51.875Z,2.70
2023-10-09T02:26:27.148Z,2.08
2023-10-09T02:29:06.305Z,2.63
2023-10-09T02:31:42.775Z,2.20
2023-10-09T02:34:10.314Z,2.35
2023-10-09T02:36:45.071Z,1.95
2023-10-09T02:39:28.014Z,2.00
2023-10-09T02:42:22.757Z,2.83
2023-10-09T02:44:53.339Z,2.75
2023-10-09T02:47:31.433Z,2.47
2023-10-09T02:50:08.789Z,2.20
2023-10-09T02:52:43.455Z,2.63
2023-10-09T02:55:24.227Z,2.10
2023-10-09T02:57:57.988Z,2.83
2023-10-09T03:03:00.058Z,2.53
2023-10-09T03:05:30.427Z,2.07
2023-10-09T03:07:58.124Z,2.50
2023-10-09T03:10:27.652Z,1.87
2023-10-09T03:12:54.715Z,1.85
2023-10-09T03:15:23.318Z,1.90
2023-10-09T03:17:50.640Z,2.22
2023-10-09T03:20:19.171Z,2.10
2023-10-09T03:22:47.541Z,2.67
2023-10-09T03:25:21.966Z,2.93
2023-10-09T03:27:49.798Z,3.28
2023-10-09T03:30:25.350Z,2.17
2023-10-09T03:32:54.558Z,1.85
2023-10-09T03:35:28.870Z,2.33
2023-10-09T03:38:15.522Z,1.92
2023-10-09T03:40:44.672Z,1.95
2023-10-09T03:43:13.093Z,2.42
2023-10-09T03:45:46.583Z,2.80
2023-10-09T03:48:22.377Z,1.95
2023-10-09T03:50:50.146Z,2.03
2023-10-09T03:53:18.239Z,2.53
2023-10-09T03:55:45.688Z,2.63
2023-10-09T03:58:13.608Z,2.30
2023-10-09T04:00:51.165Z,2.10
2023-10-09T04:03:18.813Z,2.08
2023-10-09T04:05:46.049Z,2.67
2023-10-09T04:08:15.470Z,2.10
2023-10-09T04:10:46.292Z,1.83
2023-10-09T04:13:19.252Z,2.30
2023-10-09T04:15:46.742Z,2.75
2023-10-09T04:18:17.074Z,2.33
2023-10-09T04:21:21.079Z,2.35
2023-10-09T04:24:11.961Z,1.90
2023-10-09T04:26:46.252Z,2.22
2023-10-09T04:29:27.849Z,2.30
2023-10-09T04:32:02.121Z,2.50
2023-10-09T04:34:30.182Z,2.78
2023-10-09T04:37:02.352Z,3.50
2023-10-09T04:39:33.201Z,3.28
2023-10-09T04:42:37.957Z,3.27
2023-10-09T04:45:08.859Z,3.45
2023-10-09T04:47:38.062Z,3.28
2023-10-09T04:50:36.663Z,3.15
2023-10-09T04:53:27.220Z,3.55
2023-10-09T04:55:59.218Z,3.67
2023-10-09T04:58:27.861Z,4.55
2023-10-09T05:01:02.023Z,6.13
2023-10-09T05:03:31.220Z,6.90
2023-10-09T05:06:01.543Z,5.40
2023-10-09T05:08:29.318Z,4.88
2023-10-09T05:11:02.332Z,4.88
2023-10-09T05:13:42.564Z,4.22
2023-10-09T05:16:29.599Z,5.35
2023-10-09T05:18:59.089Z,4.50
2023-10-09T05:21:39.587Z,5.28
2023-10-09T05:24:14.509Z,4.93
2023-10-09T05:26:49.098Z,6.18
2023-10-09T05:29:21.145Z,5.53
2023-10-09T05:31:58.741Z,4.70
2023-10-09T05:34:35.286Z,5.43
2023-10-09T05:37:25.226Z,5.72
2023-10-09T05:40:20.213Z,5.18
2023-10-09T05:42:59.941Z,4.63
2023-10-09T05:45:47.112Z,4.70
2023-10-09T05:48:14.162Z,4.40
2023-10-09T05:51:01.840Z,6.32
2023-10-09T05:53:49.346Z,5.35
2023-10-09T05:56:35.470Z,5.40
2023-10-09T05:59:21.274Z,5.22
2023-10-09T06:02:00.653Z,6.07
2023-10-09T06:04:46.003Z,5.53
2023-10-09T06:07:15.271Z,6.38
2023-10-09T06:09:51.698Z,6.50
2023-10-09T06:12:35.230Z,7.35
2023-10-09T06:15:33.772Z,7.28
2023-10-09T06:18:21.230Z,6.53
2023-10-09T06:21:06.931Z,7.43
2023-10-09T06:24:06.075Z,7.65
2023-10-09T06:26:34.806Z,6.20
2023-10-09T06:29:27.915Z,6.57
2023-10-09T06:32:17.720Z,5.88
2023-10-09T06:34:47.853Z,6.20
2023-10-09T06:37:35.318Z,6.32
2023-10-09T06:40:37.896Z,8.63
2023-10-09T06:43:11.357Z,5.68
2023-10-09T06:45:56.645Z,6.70
2023-10-09T06:48:36.173Z,6.82
2023-10-09T06:51:26.210Z,7.25
2023-10-09T06:53:57.267Z,7.30
2023-10-09T06:56:32.671Z,8.18
2023-10-09T06:59:17.702Z,7.80
2023-10-09T07:01:46.134Z,7.80
2023-10-09T07:04:21.840Z,7.35
2023-10-09T07:06:58.400Z,8.73
2023-10-09T07:09:29.481Z,9.10
2023-10-09T07:11:56.742Z,8.70
2023-10-09T07:14:34.257Z,10.45
2023-10-09T07:17:45.145Z,10.43
2023-10-09T07:20:17.372Z,10.35
2023-10-09T07:23:11.195Z,10.30
2023-10-09T07:25:56.585Z,10.07
2023-10-09T07:28:44.214Z,10.02
2023-10-09T07:31:29.237Z,9.20
2023-10-09T07:33:59.632Z,11.30
2023-10-09T07:36:36.676Z,10.43
2023-10-09T07:39:14.993Z,13.13
2023-10-09T07:41:46.807Z,10.15
2023-10-09T07:44:32.969Z,10.20
2023-10-09T07:47:29.973Z,10.60
2023-10-09T07:50:00.759Z,11.23
2023-10-09T07:52:28.924Z,11.90
2023-10-09T07:55:03.499Z,11.20
2023-10-09T07:57:40.380Z,10.13
2023-10-09T08:00:34.488Z,9.38
2023-10-09T08:03:02.594Z,9.63
2023-10-09T08:05:46.233Z,11.30
2023-10-09T08:08:41.094Z,11.55
2023-10-09T08:11:29.994Z,11.20
2023-10-09T08:13:57.737Z,9.32
2023-10-09T08:16:27.890Z,9.88
2023-10-09T08:18:59.079Z,9.57
2023-10-09T08:21:45.623Z,8.77
2023-10-09T08:24:32.986Z,9.38
2023-10-09T08:27:18.989Z,9.55
2023-10-09T08:29:49.287Z,7.03
2023-10-09T08:35:43.225Z,8.10
2023-10-09T08:38:12.114Z,7.85
2023-10-09T08:40:41.437Z,7.80
2023-10-09T08:43:32.652Z,7.32
2023-10-09T08:46:02.947Z,8.13
2023-10-09T08:48:31.792Z,6.82
2023-10-09T08:50:59.931Z,8.25
2023-10-09T08:53:29.616Z,7.55
2023-10-09T08:55:59.038Z,8.63
2023-10-09T08:58:28.438Z,7.43
2023-10-09T09:00:57.409Z,8.07
2023-10-09T09:03:25.840Z,8.65
2023-10-09T09:06:03.851Z,7.50
2023-10-09T09:08:32.911Z,8.48
2023-10-09T09:11:13.398Z,9.05
2023-10-09T09:13:50.385Z,8.48
2023-10-09T09:16:22.029Z,8.10
2023-10-09T09:18:58.112Z,7.80
2023-10-09T09:21:25.659Z,8.43
2023-10-09T09:24:02.840Z,8.48
2023-10-09T09:26:39.291Z,8.30
2023-10-09T09:29:07.655Z,7.90
2023-10-09T09:31:43.302Z,8.07
2023-10-09T09:34:19.389Z,8.20
2023-10-09T09:36:56.905Z,8.07
2023-10-09T09:39:35.608Z,7.68
2023-10-09T09:42:15.513Z,8.93
2023-10-09T09:44:46.384Z,8.27
2023-10-09T09:47:25.426Z,7.68
2023-10-09T09:50:01.863Z,8.82
2023-10-09T09:52:41.646Z,8.27
2023-10-09T09:55:24.301Z,8.30
2023-10-09T09:57:53.418Z,9.40
2023-10-09T10:00:33.976Z,8.48
2023-10-09T10:03:27.359Z,8.13
2023-10-09T10:05:58.481Z,7.03
2023-10-09T10:08:34.508Z,11.18
2023-10-09T10:11:15.704Z,9.25
2023-10-09T10:13:43.385Z,10.27
2023-10-09T10:16:20.597Z,7.47
2023-10-09T10:19:11.387Z,11.15
2023-10-09T10:21:50.694Z,12.57
2023-10-09T10:24:30.333Z,8.45
2023-10-09T10:27:32.917Z,5.65
2023-10-09T10:30:14.819Z,6.03
2023-10-09T10:32:53.965Z,4.80
2023-10-09T10:35:44.916Z,4.40
2023-10-09T10:38:58.535Z,4.30
2023-10-09T10:41:25.867Z,3.00
2023-10-09T10:43:52.730Z,3.00
2023-10-09T10:46:31.110Z,3.17
2023-10-09T10:49:32.223Z,3.67
2023-10-09T10:52:20.572Z,2.63
2023-10-09T10:54:48.081Z,2.30
2023-10-09T10:57:39.159Z,3.45
2023-10-09T11:00:35.562Z,2.22
2023-10-09T11:03:15.332Z,1.83
2023-10-09T11:05:44.320Z,1.50
2023-10-09T11:08:11.721Z,1.90
2023-10-09T11:10:51.270Z,1.67
2023-10-09T11:13:36.803Z,1.40
2023-10-09T11:16:30.924Z,1.75
2023-10-09T11:18:58.802Z,1.40
2023-10-09T11:21:33.181Z,1.60
2023-10-09T11:24:21.201Z,1.90
2023-10-09T11:26:56.293Z,1.95
2023-10-09T11:29:25.315Z,1.90
2023-10-09T11:32:03.487Z,2.08
2023-10-09T11:34:31.303Z,2.60
2023-10-09T11:37:00.286Z,3.30
2023-10-09T11:39:36.436Z,5.55
2023-10-09T11:42:07.356Z,2.78
2023-10-09T11:44:40.884Z,16.63
2023-10-09T11:47:21.834Z,11.65
2023-10-09T11:50:02.662Z,3.05
2023-10-09T11:52:37.424Z,3.10
2023-10-09T11:55:08.079Z,1.88
2023-10-09T11:57:36.841Z,2.72
2023-10-09T12:00:26.959Z,4.57
2023-10-09T12:02:54.591Z,3.78
2023-10-09T12:05:22.235Z,5.70
2023-10-09T12:07:58.296Z,2.70
2023-10-09T12:10:28.636Z,61.55
2023-10-09T12:12:59.696Z,7.28
2023-10-09T12:15:38.535Z,3.08
2023-10-09T12:18:12.520Z,4.70
2023-10-09T12:20:41.130Z,3.08
2023-10-09T12:23:08.602Z,13.10
2023-10-09T12:25:36.788Z,5.00
2023-10-09T12:28:04.992Z,22.55
2023-10-09T12:30:33.145Z,8.00
2023-10-09T12:33:00.383Z,36.47
2023-10-09T12:35:29.905Z,37.95
2023-10-09T12:37:58.164Z,14.80
2023-10-09T12:40:26.507Z,20.48
2023-10-09T12:42:54.133Z,7.53
2023-10-09T12:45:28.092Z,10.32
2023-10-09T12:48:00.579Z,7.00
2023-10-09T12:50:31.513Z,7.00
2023-10-09T12:53:08.624Z,126.78
2023-10-09T12:55:43.112Z,11.60
2023-10-09T12:58:16.146Z,5.80
2023-10-09T13:00:50.980Z,7.38
2023-10-09T13:03:19.827Z,4.30
2023-10-09T13:05:58.161Z,5.32
2023-10-09T13:08:33.863Z,3.53
2023-10-09T13:11:12.531Z,3.05
2023-10-09T13:13:42.122Z,18.70
2023-10-09T13:16:14.224Z,13.23
2023-10-09T13:18:51.521Z,28.35
2023-10-09T13:21:27.991Z,15.15
2023-10-09T13:23:59.280Z,20.25
2023-10-09T13:26:34.759Z,5.45
2023-10-09T13:29:05.204Z,32.38
2023-10-09T13:31:36.557Z,12.68
2023-10-09T13:34:08.096Z,25.02
2023-10-09T13:36:36.416Z,26.33
2023-10-09T13:39:28.389Z,18.88
2023-10-09T13:42:01.821Z,75.80
2023-10-09T13:44:29.720Z,27.38
2023-10-09T13:46:58.384Z,31.77
2023-10-09T13:49:32.209Z,38.05
2023-10-09T13:52:01.289Z,5.18
2023-10-09T13:54:34.482Z,55.85
2023-10-09T13:57:05.681Z,8.75
2023-10-09T13:59:36.941Z,12.05
2023-10-09T14:02:11.476Z,34.92
2023-10-09T14:04:39.356Z,73.40
2023-10-09T14:07:09.901Z,35.70
2023-10-09T14:09:40.201Z,27.27
2023-10-09T14:12:09.244Z,29.48
2023-10-09T14:14:50.187Z,3.05
2023-10-09T14:17:27.608Z,12.68
2023-10-09T14:19:57.239Z,27.98
2023-10-09T14:22:28.595Z,18.33
2023-10-09T14:25:00.797Z,23.17
2023-10-09T14:27:31.230Z,37.60
2023-10-09T14:30:02.197Z,25.10
2023-10-09T14:32:45.683Z,23.67
2023-10-09T14:35:16.041Z,20.35
2023-10-09T14:37:43.325Z,49.63
2023-10-09T14:40:14.670Z,31.73
2023-10-09T14:42:46.205Z,17.05
2023-10-09T14:45:19.822Z,71.10
2023-10-09T14:47:48.380Z,17.38
2023-10-09T14:50:15.368Z,9.02
2023-10-09T14:52:42.511Z,5.65
2023-10-09T14:55:11.469Z,13.63
2023-10-09T14:57:38.397Z,8.90
2023-10-09T15:00:17.527Z,20.05
2023-10-09T15:02:46.546Z,19.52
2023-10-09T15:05:15.271Z,75.10
2023-10-09T15:07:45.335Z,52.15
2023-10-09T15:10:17.512Z,11.30
2023-10-09T15:12:45.036Z,10.52
2023-10-09T15:15:15.945Z,85.38
2023-10-09T15:17:50.036Z,6.28
2023-10-09T15:20:18.503Z,66.97
2023-10-09T15:22:46.695Z,79.35
2023-10-09T15:25:19.001Z,68.68
2023-10-09T15:27:46.486Z,23.95
2023-10-09T15:30:18.694Z,7.88
2023-10-09T15:32:47.720Z,5.80
2023-10-09T15:35:15.590Z,11.20
2023-10-09T15:37:44.247Z,8.88
2023-10-09T15:40:20.281Z,4.85
2023-10-09T15:42:51.647Z,7.20
2023-10-09T15:45:22.598Z,3.40
2023-10-09T15:47:53.036Z,4.38
2023-10-09T15:50:21.917Z,3.70
2023-10-09T15:52:52.954Z,3.58
2023-10-09T15:55:22.421Z,3.03
2023-10-09T15:57:50.253Z,3.10
2023-10-09T16:00:20.374Z,3.53
2023-10-09T16:02:54.775Z,2.65
2023-10-09T16:05:27.400Z,3.10
2023-10-09T16:07:56.457Z,2.72
2023-10-09T16:10:24.704Z,3.33
2023-10-09T16:12:55.460Z,3.67
2023-10-09T16:15:26.476Z,3.85
2023-10-09T16:18:00.315Z,3.53
2023-10-09T16:20:28.458Z,3.80
2023-10-09T16:22:57.736Z,4.03
2023-10-09T16:25:28.509Z,3.33
2023-10-09T16:27:57.731Z,3.38
2023-10-09T16:30:25.519Z,2.67
2023-10-09T16:32:53.388Z,2.88
2023-10-09T16:35:24.031Z,3.05
2023-10-09T16:37:52.118Z,3.47
2023-10-09T16:40:22.117Z,3.13
2023-10-09T16:42:50.931Z,3.35
2023-10-09T16:45:19.112Z,3.20
2023-10-09T16:47:48.506Z,3.65
2023-10-09T16:50:19.449Z,3.47
2023-10-09T16:52:47.217Z,3.05
2023-10-09T16:55:14.755Z,3.55
2023-10-09T16:57:42.868Z,3.40
2023-10-09T17:00:20.022Z,3.60
2023-10-09T17:02:50.830Z,3.92
2023-10-09T17:05:29.650Z,4.15
2023-10-09T17:07:57.885Z,4.18
2023-10-09T17:10:29.083Z,4.25
2023-10-09T17:12:56.998Z,4.95
2023-10-09T17:15:30.768Z,4.45
2023-10-09T17:20:28.660Z,7.07
2023-10-09T17:23:01.894Z,12.75
2023-10-09T17:25:32.615Z,8.27
2023-10-09T17:28:03.013Z,10.90
2023-10-09T17:30:30.385Z,21.08
2023-10-09T17:32:59.535Z,40.85
2023-10-09T17:35:29.531Z,59.47
2023-10-09T17:37:58.327Z,61.78
2023-10-09T17:40:29.714Z,118.97
2023-10-09T17:42:58.058Z,111.90
2023-10-09T17:45:26.311Z,108.32
2023-10-09T17:47:54.712Z,78.63
2023-10-09T17:50:23.860Z,70.68
2023-10-09T17:52:51.432Z,85.03
2023-10-09T17:55:19.948Z,80.72
2023-10-09T17:57:47.356Z,66.93
2023-10-09T18:00:24.058Z,19.98
2023-10-09T18:02:53.903Z,15.77
2023-10-09T18:05:22.091Z,17.27
2023-10-09T18:07:51.545Z,15.95
2023-10-09T18:10:19.240Z,18.23
2023-10-09T18:12:47.607Z,14.73
2023-10-09T18:15:15.576Z,15.52
2023-10-09T18:17:45.914Z,17.00
2023-10-09T18:20:13.878Z,18.92
2023-10-09T18:22:41.075Z,15.50
2023-10-09T18:25:08.750Z,16.50
2023-10-09T18:27:36.357Z,19.15
2023-10-09T18:30:06.675Z,18.98
2023-10-09T18:32:33.936Z,19.38
2023-10-09T18:35:01.810Z,21.35
2023-10-09T18:37:29.733Z,28.23
2023-10-09T18:40:00.632Z,17.58
2023-10-09T18:42:30.581Z,17.48
2023-10-09T18:44:58.136Z,16.23
2023-10-09T18:47:26.063Z,17.85
2023-10-09T18:49:53.452Z,18.23
2023-10-09T18:52:22.145Z,18.42
2023-10-09T18:54:49.605Z,19.90
2023-10-09T18:57:17.395Z,17.63
2023-10-09T18:59:45.245Z,18.50
2023-10-09T19:02:13.216Z,18.92
2023-10-09T19:04:40.806Z,18.85
2023-10-09T19:07:08.299Z,17.98
2023-10-09T19:09:36.949Z,16.15
2023-10-09T19:12:09.526Z,15.45
2023-10-09T19:14:37.340Z,15.35
2023-10-09T19:17:06.504Z,15.30
2023-10-09T19:19:36.585Z,14.93
2023-10-09T19:22:04.262Z,15.80
2023-10-09T19:24:32.407Z,17.23
2023-10-09T19:27:03.068Z,22.15
2023-10-09T19:29:30.962Z,23.58
2023-10-09T19:31:58.987Z,25.00
2023-10-09T19:34:26.314Z,21.38
2023-10-09T19:36:53.876Z,21.50
2023-10-09T19:39:21.449Z,23.13
2023-10-09T19:41:48.711Z,23.75
2023-10-09T19:44:16.439Z,23.42
2023-10-09T19:46:45.779Z,22.13
2023-10-09T19:49:13.490Z,22.05
2023-10-09T19:51:41.722Z,19.88
2023-10-09T19:54:08.955Z,17.85
2023-10-09T19:56:39.476Z,15.95
2023-10-09T19:59:07.707Z,15.18
2023-10-09T20:01:36.268Z,14.27
2023-10-09T20:04:04.435Z,13.65
2023-10-09T20:06:32.460Z,12.95
2023-10-09T20:09:00.292Z,12.32
2023-10-09T20:11:27.667Z,11.13
2023-10-09T20:13:55.039Z,11.90
2023-10-09T20:16:28.136Z,10.13
2023-10-09T20:18:56.710Z,12.15
2023-10-09T20:21:24.998Z,11.70
2023-10-09T20:23:52.403Z,11.40
2023-10-09T20:26:19.907Z,10.85
2023-10-09T20:28:49.373Z,11.52
2023-10-09T20:31:16.825Z,12.85
2023-10-09T20:33:45.312Z,15.60
2023-10-09T20:36:29.415Z,15.82
2023-10-09T20:41:29.413Z,11.15
2023-10-09T20:43:56.931Z,12.57
2023-10-09T20:46:25.932Z,13.43
2023-10-09T20:48:53.773Z,10.55
2023-10-09T20:51:21.088Z,12.77
2023-10-09T20:53:48.683Z,12.80
2023-10-09T20:56:16.270Z,13.10
2023-10-09T20:58:44.827Z,11.15
2023-10-09T21:01:19.131Z,12.75
2023-10-09T21:03:51.292Z,10.68
2023-10-09T21:06:25.176Z,9.90
2023-10-09T21:08:53.253Z,11.80
2023-10-09T21:11:21.000Z,11.32
2023-10-09T21:13:48.742Z,11.73
2023-10-09T21:16:18.044Z,13.82
2023-10-09T21:18:47.099Z,13.13
2023-10-09T21:21:17.108Z,13.93
2023-10-09T21:23:45.985Z,14.30
2023-10-09T21:26:21.396Z,14.55
2023-10-09T21:28:50.154Z,34.95
2023-10-09T21:31:19.079Z,45.03
2023-10-09T21:33:49.515Z,38.83
2023-10-09T21:36:17.557Z,28.70
2023-10-09T21:38:44.689Z,27.60
2023-10-09T21:41:18.670Z,25.25
2023-10-09T21:43:47.716Z,24.33
2023-10-09T21:46:17.342Z,23.80
2023-10-09T21:48:45.139Z,20.80
2023-10-09T21:51:18.296Z,21.58
2023-10-09T21:53:48.791Z,18.48
2023-10-09T21:56:17.318Z,18.05
2023-10-09T21:58:45.015Z,17.80
2023-10-09T22:01:14.312Z,16.15
2023-10-09T22:03:43.214Z,15.05
2023-10-09T22:06:12.390Z,13.80
2023-10-09T22:08:40.083Z,15.30
2023-10-09T22:11:09.210Z,16.07
2023-10-09T22:13:36.901Z,15.02
2023-10-09T22:16:04.648Z,15.55
2023-10-09T22:18:34.020Z,14.53
2023-10-09T22:21:06.723Z,10.93
2023-10-09T22:23:34.721Z,12.63
2023-10-09T22:26:02.769Z,10.93
2023-10-09T22:28:31.769Z,12.43
2023-10-09T22:31:05.687Z,9.33
2023-10-09T22:33:47.282Z,9.50
2023-10-09T22:36:15.844Z,7.80
2023-10-09T22:38:43.608Z,7.57
2023-10-09T22:41:10.921Z,7.20
2023-10-09T22:43:41.193Z,7.60
2023-10-09T22:46:09.272Z,7.47
2023-10-09T22:48:43.134Z,7.90
2023-10-09T22:51:11.790Z,6.10
2023-10-09T22:53:40.839Z,6.10
2023-10-09T22:56:14.382Z,6.60
2023-10-09T23:01:25.013Z,8.23
2023-10-09T23:04:16.886Z,7.50
2023-10-09T23:06:47.701Z,9.63
2023-10-09T23:09:17.914Z,10.07
2023-10-09T23:11:55.612Z,11.23
2023-10-09T23:14:28.568Z,12.30
2023-10-09T23:17:03.560Z,11.15
2023-10-09T23:19:34.361Z,9.17
2023-10-09T23:22:16.020Z,7.93
2023-10-09T23:24:53.458Z,6.57
2023-10-09T23:27:40.133Z,7.07
2023-10-09T23:30:30.202Z,7.87
2023-10-09T23:33:22.560Z,8.03
2023-10-09T23:35:57.131Z,8.07
2023-10-09T23:38:57.125Z,7.47
2023-10-09T23:41:24.986Z,8.23
2023-10-09T23:43:55.050Z,7.90
2023-10-09T23:46:25.414Z,7.47
2023-10-09T23:48:56.181Z,7.57
2023-10-09T23:51:28.458Z,7.07
2023-10-09T23:54:03.057Z,7.93
2023-10-09T23:56:49.415Z,8.23
2023-10-09T23:59:17.285Z,9.03
